CheckWX is a tool to help pilots better visualize weather data.  It is not intended as a substitute for an official pre-flight weather briefing.

11:11:36 UTC

KHNZ METAR
Henderson-Oxford Airport
Oxford, North Carolina, USA
Current

17 mins ago

KHNZ 251055Z AUTO 06005KT 10SM BKN006 OVC012 14/14 A3018 RMK AO2 T01420140
Observed
May-25 @ 10:55 UTC
Wind
  • 060° at 5 KTS
Visibility
Flight Rules
IFR
Cloud Levels
  • Broken at 600' AGL
  • Overcast at 1,200' AGL
Temperature
14°C / 57°F
Dewpoint
14°C / 57°F
Humidity
100%
Altimeter
30.18" Hg
Pressure
1022.02 hPa
Previous

37 mins ago

KHNZ 251035Z AUTO 04003KT 10SM OVC004 14/14 A3017 RMK AO2 T01410140
Observed
May-25 @ 10:35 UTC
Wind
  • 040° at 3 KTS
Visibility
Flight Rules
LIFR
Cloud Levels
  • Overcast at 400' AGL
Temperature
14°C / 57°F
Dewpoint
14°C / 57°F
Humidity
100%
Altimeter
30.17" Hg
Pressure
1021.72 hPa
Previous

57 mins ago

KHNZ 251015Z AUTO 04003KT 10SM OVC004 14/14 A3016 RMK AO2 T01400140
Observed
May-25 @ 10:15 UTC
Wind
  • 040° at 3 KTS
Visibility
Flight Rules
LIFR
Cloud Levels
  • Overcast at 400' AGL
Temperature
14°C / 57°F
Dewpoint
14°C / 57°F
Humidity
100%
Altimeter
30.16" Hg
Pressure
1021.32 hPa